Station Historical Data
Daily Summary for May 22, 2017 Units:  Metric    English   Both
« Previous Day
Next Day »
Daily Weekly Monthly Yearly Custom
  High: Low: Average:
Temperature: 26 °C 19.3 °C 21.5 °C
Dew Point: 20.7 °C 17.2 °C 19.1 °C
Humidity: 95% 67% 87%
Wind Speed: 1.6km/h 0km/h 0km/h
Wind Gust: 8km/h - -
Wind- - NW
Pressure: 1018.5 hPa 1013.8 hPa -
Precipitation: 1.27 mm    
Historical Graphs
 
 
Tabular Data for May 22, 2017
Time Temperature Dew Point Pressure Wind Wind Speed Wind Gust Humidity Rainfall Rate (Hourly) solar Conditions
00:00 21.4 °C 19.4 °C 1018.5 hPa Calm     88% 0 mm WeatherDisplay:10.37 W/m2 RA
00:10 21.4 °C 19.4 °C 1018.2 hPa Calm     88% 0 mm WeatherDisplay:10.37 W/m2 SCT
00:20 21.4 °C 19.5 °C 1018.2 hPa Calm     89% 0 mm WeatherDisplay:10.37 W/m2 SCT
00:30 21.4 °C 19.5 °C 1018.5 hPa Calm     89% 0 mm WeatherDisplay:10.37 W/m2 SCT
00:40 21.3 °C 19.4 °C 1018.5 hPa Calm     89% 0 mm WeatherDisplay:10.37 W/m2 SCT
00:50 21.3 °C 19.4 °C 1018.5 hPa Calm     89% 0 mm WeatherDisplay:10.37 W/m2 SCT
01:00 21.2 °C 19.3 °C 1018.2 hPa Calm     89% 0 mm WeatherDisplay:10.37 W/m2 SCT
01:10 21.1 °C 19.2 °C 1018.2 hPa Calm     89% 0 mm WeatherDisplay:10.37 W/m2 SCT
01:20 21 °C 19.3 °C 1018.2 hPa Calm     90% 0 mm WeatherDisplay:10.37 W/m2 SCT
01:40 20.8 °C 19.1 °C 1017.8 hPa Calm     90% 0 mm WeatherDisplay:10.37 W/m2 SCT
01:50 20.6 °C 18.9 °C 1017.8 hPa Calm     90% 0 mm WeatherDisplay:10.37 W/m2 SCT
02:00 20.6 °C 18.8 °C 1017.8 hPa Calm     90% 0 mm WeatherDisplay:10.37 W/m2 SCT
02:10 20.4 °C 18.7 °C 1017.8 hPa Calm     90% 0 mm WeatherDisplay:10.37 W/m2 SCT
02:20 20.4 °C 18.9 °C 1017.8 hPa Calm     91% 0 mm WeatherDisplay:10.37 W/m2 SCT
02:30 20.3 °C 18.8 °C 1017.5 hPa Calm     91% 0 mm WeatherDisplay:10.37 W/m2 SCT
02:40 20.2 °C 18.7 °C 1017.5 hPa Calm     91% 0 mm WeatherDisplay:10.37 W/m2 SCT
02:50 20.1 °C 18.6 °C 1017.8 hPa Calm     91% 0 mm WeatherDisplay:10.37 W/m2 SCT
03:00 20.1 °C 18.6 °C 1017.8 hPa Calm     91% 0 mm WeatherDisplay:10.37 W/m2 SCT
03:10 20.1 °C 18.6 °C 1017.8 hPa Calm     91% 0 mm WeatherDisplay:10.37 W/m2 SCT
03:20 20.1 °C 18.7 °C 1017.8 hPa Calm     92% 0 mm WeatherDisplay:10.37 W/m2 SCT
03:30 20 °C 18.7 °C 1017.5 hPa Calm     92% 0 mm WeatherDisplay:10.37 W/m2 SCT
03:40 19.9 °C 18.6 °C 1017.5 hPa Calm     92% 0 mm WeatherDisplay:10.37 W/m2 SCT
03:50 19.8 °C 18.5 °C 1017.5 hPa Calm     92% 0 mm WeatherDisplay:10.37 W/m2 SCT
04:00 19.3 °C 18.4 °C 1017.5 hPa Calm     95% 0 mm WeatherDisplay:10.37 W/m2 SCT
04:20 19.3 °C 18.4 °C 1017.8 hPa Calm     95% 0 mm WeatherDisplay:10.37 W/m2 SCT
04:30 19.3 °C 18.4 °C 1017.5 hPa Calm     95% 0 mm WeatherDisplay:10.37 W/m2 SCT
04:40 19.3 °C 18.4 °C 1017.5 hPa Calm     95% 0 mm WeatherDisplay:10.37 W/m2 SCT
04:50 19.3 °C 18.4 °C 1017.5 hPa Calm     95% 0 mm WeatherDisplay:10.37 W/m2 SCT
05:00 19.3 °C 18.4 °C 1017.5 hPa Calm     95% 0 mm WeatherDisplay:10.37 W/m2 SCT
05:10 19.3 °C 18.4 °C 1017.5 hPa Calm     95% 0 mm WeatherDisplay:10.37 W/m2 SCT
05:20 19.3 °C 18.4 °C 1017.2 hPa Calm     95% 0 mm WeatherDisplay:10.37 W/m2 SCT
05:30 19.3 °C 18.4 °C 1017.5 hPa Calm     95% 0 mm WeatherDisplay:10.37 W/m2 SCT
05:40 19.3 °C 18.4 °C 1017.5 hPa Calm     95% 0 mm WeatherDisplay:10.37 W/m2 SCT
05:50 19.3 °C 18.4 °C 1017.5 hPa Calm     95% 0 mm WeatherDisplay:10.37 W/m2 SCT
06:00 19.3 °C 18.4 °C 1017.5 hPa Calm     95% 0 mm WeatherDisplay:10.37 W/m2 SCT
06:10 19.3 °C 18.4 °C 1017.5 hPa Calm     95% 0 mm WeatherDisplay:10.37 W/m2 SCT
06:20 19.3 °C 18.4 °C 1017.8 hPa Calm     95% 0 mm WeatherDisplay:10.37 W/m2 SCT
06:30 19.3 °C 18.4 °C 1017.8 hPa Calm     95% 0 mm WeatherDisplay:10.37 W/m2 SCT
06:40 19.3 °C 18.4 °C 1017.8 hPa Calm     95% 0 mm WeatherDisplay:10.37 W/m2 SCT
06:50 19.3 °C 18.4 °C 1017.8 hPa Calm     95% 0 mm WeatherDisplay:10.37 W/m2 SCT
07:00 19.3 °C 18.4 °C 1017.8 hPa Calm     95% 0 mm WeatherDisplay:10.37 W/m2 SCT
07:10 19.3 °C 18.4 °C 1017.5 hPa Calm     95% 0 mm WeatherDisplay:10.37 W/m2 SCT
07:20 19.3 °C 18.4 °C 1017.8 hPa Calm     95% 0 mm WeatherDisplay:10.37 W/m2 SCT
07:30 19.3 °C 18.4 °C 1018.2 hPa Calm     95% 0 mm WeatherDisplay:10.37 W/m2 SCT
07:40 19.3 °C 18.4 °C 1017.5 hPa Calm     95% 0 mm WeatherDisplay:10.37 W/m2 SCT
07:50 19.9 °C 18.8 °C 1017.5 hPa Calm     93% 0 mm WeatherDisplay:10.37 W/m2 SCT
08:00 20.3 °C 19.3 °C 1017.5 hPa Calm     94% 0 mm WeatherDisplay:10.37 W/m2 SCT
08:10 20.5 °C 19.3 °C 1017.5 hPa Calm   1.6 km/h 93% 0 mm WeatherDisplay:10.37 W/m2 SCT
08:20 20.9 °C 19.7 °C 1017.8 hPa NNW 1.6 km/h 1.6 km/h 93% 0 mm WeatherDisplay:10.37 W/m2 SCT
08:30 21.4 °C 20.3 °C 1017.8 hPa Calm   1.6 km/h 93% 0 mm WeatherDisplay:10.37 W/m2 SCT
08:40 21.7 °C 20.2 °C 1018.2 hPa Calm     91% 0 mm WeatherDisplay:10.37 W/m2 SCT
08:50 22 °C 20.3 °C 1018.2 hPa Calm   1.6 km/h 90% 0 mm WeatherDisplay:10.37 W/m2 SCT
09:00 22.4 °C 20.5 °C 1018.2 hPa Calm   1.6 km/h 89% 0 mm WeatherDisplay:10.37 W/m2 SCT
09:10 22.7 °C 20.4 °C 1018.2 hPa Calm   3.2 km/h 87% 0 mm WeatherDisplay:10.37 W/m2 SCT
09:20 22.7 °C 20.3 °C 1018.2 hPa Calm   3.2 km/h 86% 0 mm WeatherDisplay:10.37 W/m2 SCT
09:30 22.9 °C 20.2 °C 1018.2 hPa Calm   1.6 km/h 85% 0 mm WeatherDisplay:10.37 W/m2 SCT
09:40 22.9 °C 20.1 °C 1017.8 hPa Calm   3.2 km/h 84% 0 mm WeatherDisplay:10.37 W/m2 SCT
09:50 23.3 °C 20.4 °C 1017.8 hPa Calm   3.2 km/h 84% 0 mm WeatherDisplay:10.37 W/m2 SCT
10:00 23.5 °C 20.4 °C 1017.8 hPa Calm   1.6 km/h 83% 0 mm WeatherDisplay:10.37 W/m2 SCT
10:10 23.7 °C 20.4 °C 1017.8 hPa Calm   1.6 km/h 82% 0 mm WeatherDisplay:10.37 W/m2 SCT
10:20 23.9 °C 20.2 °C 1017.8 hPa Calm   3.2 km/h 80% 0 mm WeatherDisplay:10.37 W/m2 SCT
10:30 24.1 °C 20.4 °C 1017.8 hPa Calm   1.6 km/h 80% 0 mm WeatherDisplay:10.37 W/m2 SCT
10:40 24.5 °C 20.4 °C 1017.8 hPa Calm   1.6 km/h 78% 0 mm WeatherDisplay:10.37 W/m2 SCT
10:50 24.6 °C 20.7 °C 1017.8 hPa Calm   3.2 km/h 79% 0 mm WeatherDisplay:10.37 W/m2 SCT
11:00 24.7 °C 20.4 °C 1017.5 hPa Calm   3.2 km/h 77% 0 mm WeatherDisplay:10.37 W/m2 SCT
11:10 24.8 °C 20.3 °C 1017.8 hPa Calm   3.2 km/h 76% 0 mm WeatherDisplay:10.37 W/m2 SCT
11:20 24.9 °C 20.6 °C 1017.5 hPa Calm   3.2 km/h 77% 0 mm WeatherDisplay:10.37 W/m2 SCT
11:30 24.9 °C 20.2 °C 1017.2 hPa Calm   1.6 km/h 75% 0 mm WeatherDisplay:10.37 W/m2 SCT
11:40 24.9 °C 20.6 °C 1017.2 hPa Calm   1.6 km/h 77% 0 mm WeatherDisplay:10.37 W/m2 SCT
11:50 25.2 °C 20.7 °C 1017.5 hPa Calm   1.6 km/h 76% 0 mm WeatherDisplay:10.37 W/m2 SCT
12:00 25.4 °C 20.4 °C 1017.2 hPa Calm   1.6 km/h 74% 0 mm WeatherDisplay:10.37 W/m2 SCT
12:10 25.4 °C 20.2 °C 1017.2 hPa Calm   3.2 km/h 73% 0 mm WeatherDisplay:10.37 W/m2 SCT
12:20 25.7 °C 20.7 °C 1016.8 hPa Calm   3.2 km/h 74% 0 mm WeatherDisplay:10.37 W/m2 SCT
12:30 25.6 °C 20.4 °C 1016.5 hPa Calm   4.8 km/h 73% 0 mm WeatherDisplay:10.37 W/m2 SCT
12:40 25.2 °C 20.5 °C 1016.5 hPa Calm   8 km/h 75% 0 mm WeatherDisplay:10.37 W/m2 SCT
12:50 24.7 °C 20.2 °C 1016.5 hPa Calm   1.6 km/h 76% 0 mm WeatherDisplay:10.37 W/m2 SCT
13:00 24.5 °C 20.2 °C 1016.1 hPa Calm   3.2 km/h 77% 0 mm WeatherDisplay:10.37 W/m2 SCT
13:10 25 °C 20.5 °C 1016.1 hPa Calm   3.2 km/h 76% 0 mm WeatherDisplay:10.37 W/m2 SCT
13:20 25.7 °C 20.2 °C 1015.8 hPa Calm   4.8 km/h 72% 0 mm WeatherDisplay:10.37 W/m2 SCT
13:30 26 °C 20.3 °C 1015.8 hPa Calm   1.6 km/h 71% 0 mm WeatherDisplay:10.37 W/m2 SCT
13:40 25.6 °C 19.7 °C 1016.1 hPa Calm   3.2 km/h 70% 0 mm WeatherDisplay:10.37 W/m2 SCT
13:50 25.6 °C 20.2 °C 1015.8 hPa NW 1.6 km/h 3.2 km/h 72% 0 mm WeatherDisplay:10.37 W/m2 SCT
14:00 25.3 °C 20.2 °C 1015.8 hPa Calm   1.6 km/h 73% 0 mm WeatherDisplay:10.37 W/m2 SCT
14:10 24.2 °C 17.7 °C 1016.1 hPa Calm   4.8 km/h 67% 0 mm WeatherDisplay:10.37 W/m2 SCT
14:20 23.3 °C 17.9 °C 1015.8 hPa Calm   1.6 km/h 72% 0 mm WeatherDisplay:10.37 W/m2 SCT
14:30 22.9 °C 17.8 °C 1016.1 hPa Calm   1.6 km/h 73% 0 mm WeatherDisplay:10.37 W/m2 SCT
14:40 22.7 °C 17.6 °C 1016.1 hPa Calm     73% 0 mm WeatherDisplay:10.37 W/m2 SCT
14:50 22.8 °C 17.3 °C 1016.1 hPa Calm   1.6 km/h 71% 0 mm WeatherDisplay:10.37 W/m2 SCT
15:00 22.9 °C 17.2 °C 1016.1 hPa Calm   1.6 km/h 70% 0 mm WeatherDisplay:10.37 W/m2 SCT
15:10 23.3 °C 17.5 °C 1015.8 hPa Calm   1.6 km/h 70% 0 mm WeatherDisplay:10.37 W/m2 SCT
15:20 23.6 °C 17.6 °C 1015.8 hPa Calm     69% 0 mm WeatherDisplay:10.37 W/m2 SCT
15:30 23.6 °C 18.1 °C 1015.5 hPa Calm     71% 0 mm WeatherDisplay:10.37 W/m2 SCT
15:40 23.6 °C 18.7 °C 1015.8 hPa Calm     74% 0 mm WeatherDisplay:10.37 W/m2 SCT
15:50 23.4 °C 18.5 °C 1015.5 hPa Calm     74% 0 mm WeatherDisplay:10.37 W/m2 SCT
16:00 23.3 °C 18.4 °C 1015.5 hPa Calm     74% 0 mm WeatherDisplay:10.37 W/m2 SCT
16:10 23.2 °C 19 °C 1015.5 hPa Calm     77% 0 mm WeatherDisplay:10.37 W/m2 SCT
16:20 22.9 °C 18.9 °C 1015.1 hPa Calm     78% 0 mm WeatherDisplay:10.37 W/m2 SCT
16:30 22.8 °C 19.2 °C 1015.1 hPa Calm   1.6 km/h 80% 0 mm WeatherDisplay:10.37 W/m2 SCT
16:40 22.6 °C 19.2 °C 1015.1 hPa Calm   3.2 km/h 81% 0 mm WeatherDisplay:10.37 W/m2 SCT
16:50 22.4 °C 19.4 °C 1014.8 hPa Calm     83% 0 mm WeatherDisplay:10.37 W/m2 SCT
17:00 22.1 °C 19.3 °C 1014.8 hPa Calm     84% 0 mm WeatherDisplay:10.37 W/m2 SCT
17:10 21.6 °C 19 °C 1014.4 hPa Calm     85% 0 mm WeatherDisplay:10.37 W/m2 SCT
17:20 21.3 °C 18.8 °C 1014.4 hPa Calm     86% 0 mm WeatherDisplay:10.37 W/m2 SCT
17:30 21.1 °C 19 °C 1014.8 hPa Calm     88% 0 mm WeatherDisplay:10.37 W/m2 SCT
17:40 20.9 °C 19 °C 1014.8 hPa Calm   1.6 km/h 89% 0 mm WeatherDisplay:10.37 W/m2 SCT
17:50 20.7 °C 18.9 °C 1014.8 hPa Calm   1.6 km/h 90% 0.25 mm WeatherDisplay:10.37 W/m2 SCT
18:00 20.6 °C 18.9 °C 1015.1 hPa Calm     90% 0 mm WeatherDisplay:10.37 W/m2 SCT
18:10 20.6 °C 19.1 °C 1015.1 hPa Calm   1.6 km/h 91% 0.25 mm WeatherDisplay:10.37 W/m2 SCT
18:20 20.5 °C 18.8 °C 1014.8 hPa Calm   3.2 km/h 90% 0 mm WeatherDisplay:10.37 W/m2 SCT
18:30 20.5 °C 19 °C 1014.4 hPa Calm   1.6 km/h 91% 0 mm WeatherDisplay:10.37 W/m2 SCT
18:40 20.5 °C 18.9 °C 1014.4 hPa Calm   1.6 km/h 91% 0 mm WeatherDisplay:10.37 W/m2 SCT
18:50 20.5 °C 19 °C 1014.4 hPa Calm     91% 0 mm WeatherDisplay:10.37 W/m2 SCT
19:00 20.4 °C 18.9 °C 1014.4 hPa Calm     91% 0 mm WeatherDisplay:10.37 W/m2 SCT
19:10 20.3 °C 18.8 °C 1014.1 hPa Calm     91% 0 mm WeatherDisplay:10.37 W/m2 SCT
19:20 20.4 °C 18.9 °C 1013.8 hPa Calm     91% 0 mm WeatherDisplay:10.37 W/m2 SCT
19:30 20.4 °C 18.8 °C 1014.1 hPa Calm     91% 0 mm WeatherDisplay:10.37 W/m2 SCT
19:40 20.3 °C 18.8 °C 1014.1 hPa Calm     91% 0 mm WeatherDisplay:10.37 W/m2 SCT
19:50 20.2 °C 18.7 °C 1013.8 hPa Calm     91% 0 mm WeatherDisplay:10.37 W/m2 SCT
20:00 20.2 °C 18.7 °C 1013.8 hPa Calm     91% 0 mm WeatherDisplay:10.37 W/m2 SCT
20:10 20.1 °C 18.6 °C 1013.8 hPa Calm     91% 0 mm WeatherDisplay:10.37 W/m2 SCT
20:20 20.1 °C 18.6 °C 1013.8 hPa Calm     91% 0 mm WeatherDisplay:10.37 W/m2 SCT
20:30 20 °C 18.5 °C 1013.8 hPa Calm     91% 0 mm WeatherDisplay:10.37 W/m2 SCT
20:40 19.9 °C 18.4 °C 1013.8 hPa Calm     91% 0 mm WeatherDisplay:10.37 W/m2 SCT
20:50 19.8 °C 18.3 °C 1013.8 hPa Calm     91% 0 mm WeatherDisplay:10.37 W/m2 SCT
21:00 19.8 °C 18.4 °C 1014.1 hPa Calm     92% 0 mm WeatherDisplay:10.37 W/m2 SCT
21:10 19.8 °C 18.5 °C 1014.1 hPa Calm     92% 0 mm WeatherDisplay:10.37 W/m2 SCT
21:20 19.8 °C 18.5 °C 1014.1 hPa Calm     92% 0 mm WeatherDisplay:10.37 W/m2 SCT
21:40 19.7 °C 18.4 °C 1014.1 hPa Calm     92% 0 mm WeatherDisplay:10.37 W/m2 SCT
21:50 19.7 °C 18.3 °C 1014.1 hPa Calm     92% 0 mm WeatherDisplay:10.37 W/m2 SCT
22:00 19.7 °C 18.4 °C 1013.8 hPa Calm     92% 0 mm WeatherDisplay:10.37 W/m2 SCT
22:10 19.7 °C 18.4 °C 1014.1 hPa Calm     92% 0 mm WeatherDisplay:10.37 W/m2 SCT
22:20 19.7 °C 18.4 °C 1014.1 hPa Calm     92% 0 mm WeatherDisplay:10.37 W/m2 SCT
22:30 19.7 °C 18.4 °C 1014.4 hPa Calm     92% 0 mm WeatherDisplay:10.37 W/m2 SCT
22:40 19.8 °C 18.4 °C 1014.4 hPa Calm     92% 0 mm WeatherDisplay:10.37 W/m2 SCT
22:50 19.8 °C 18.6 °C 1014.4 hPa Calm     93% 0 mm WeatherDisplay:10.37 W/m2 SCT
23:00 19.8 °C 18.7 °C 1014.4 hPa Calm     93% 0.25 mm WeatherDisplay:10.37 W/m2 SCT
23:10 19.9 °C 18.7 °C 1014.4 hPa Calm     93% 0 mm WeatherDisplay:10.37 W/m2 SCT
23:20 19.9 °C 18.8 °C 1014.1 hPa Calm     93% 0.25 mm WeatherDisplay:10.37 W/m2 SCT
23:30 19.9 °C 18.8 °C 1014.1 hPa Calm     93% 0.25 mm WeatherDisplay:10.37 W/m2 RA
23:40 19.9 °C 18.8 °C 1013.8 hPa Calm     93% 0 mm WeatherDisplay:10.37 W/m2 SCT
23:50 19.9 °C 18.8 °C 1013.8 hPa Calm     93% 0 mm WeatherDisplay:10.37 W/m2 SCT
Piedmont Bend
Compliments of Weather Underground - 4 mb